sensor_id;sensor_type;location;lat;lon;timestamp;temperature;humidity
49385;DHT22;36795;45.028;38.968;2023-12-29T00:02:21;4.10;72.50
49385;DHT22;36795;45.028;38.968;2023-12-29T00:05:07;4.10;72.50
49385;DHT22;36795;45.028;38.968;2023-12-29T00:07:53;4.10;72.70
49385;DHT22;36795;45.028;38.968;2023-12-29T00:10:40;4.10;72.90
49385;DHT22;36795;45.028;38.968;2023-12-29T00:13:26;4.00;73.00
49385;DHT22;36795;45.028;38.968;2023-12-29T00:16:12;4.00;73.10
49385;DHT22;36795;45.028;38.968;2023-12-29T00:18:58;4.10;73.40
49385;DHT22;36795;45.028;38.968;2023-12-29T00:21:44;4.00;73.50
49385;DHT22;36795;45.028;38.968;2023-12-29T00:24:30;4.00;73.80
49385;DHT22;36795;45.028;38.968;2023-12-29T00:27:19;4.00;74.00
49385;DHT22;36795;45.028;38.968;2023-12-29T00:30:07;3.90;74.20
49385;DHT22;36795;45.028;38.968;2023-12-29T00:32:55;4.00;74.30
49385;DHT22;36795;45.028;38.968;2023-12-29T00:35:41;3.90;74.30
49385;DHT22;36795;45.028;38.968;2023-12-29T00:38:28;4.00;74.50
49385;DHT22;36795;45.028;38.968;2023-12-29T00:41:14;4.00;74.60
49385;DHT22;36795;45.028;38.968;2023-12-29T00:44:01;4.00;74.90
49385;DHT22;36795;45.028;38.968;2023-12-29T00:46:47;3.90;75.20
49385;DHT22;36795;45.028;38.968;2023-12-29T00:49:33;3.90;75.20
49385;DHT22;36795;45.028;38.968;2023-12-29T00:52:19;3.90;75.20
49385;DHT22;36795;45.028;38.968;2023-12-29T00:55:06;3.90;75.30
49385;DHT22;36795;45.028;38.968;2023-12-29T00:57:51;3.90;75.40
49385;DHT22;36795;45.028;38.968;2023-12-29T01:00:38;3.90;75.50
49385;DHT22;36795;45.028;38.968;2023-12-29T01:03:25;4.00;75.60
49385;DHT22;36795;45.028;38.968;2023-12-29T01:06:11;4.00;75.60
49385;DHT22;36795;45.028;38.968;2023-12-29T01:08:57;4.10;75.80
49385;DHT22;36795;45.028;38.968;2023-12-29T01:11:44;4.10;75.90
49385;DHT22;36795;45.028;38.968;2023-12-29T01:14:29;4.10;76.00
49385;DHT22;36795;45.028;38.968;2023-12-29T01:17:16;4.20;76.20
49385;DHT22;36795;45.028;38.968;2023-12-29T01:20:02;4.20;76.30
49385;DHT22;36795;45.028;38.968;2023-12-29T01:22:50;4.30;76.50
49385;DHT22;36795;45.028;38.968;2023-12-29T01:25:36;4.30;76.60
49385;DHT22;36795;45.028;38.968;2023-12-29T01:28:22;4.40;76.70
49385;DHT22;36795;45.028;38.968;2023-12-29T01:31:08;4.40;76.80
49385;DHT22;36795;45.028;38.968;2023-12-29T01:33:55;4.40;76.90
49385;DHT22;36795;45.028;38.968;2023-12-29T01:36:41;4.40;77.10
49385;DHT22;36795;45.028;38.968;2023-12-29T01:39:27;4.40;77.10
49385;DHT22;36795;45.028;38.968;2023-12-29T01:42:14;4.50;77.20
49385;DHT22;36795;45.028;38.968;2023-12-29T01:45:00;4.50;77.30
49385;DHT22;36795;45.028;38.968;2023-12-29T01:47:48;4.50;77.30
49385;DHT22;36795;45.028;38.968;2023-12-29T01:50:34;4.50;77.40
49385;DHT22;36795;45.028;38.968;2023-12-29T01:53:21;4.50;77.40
49385;DHT22;36795;45.028;38.968;2023-12-29T01:56:08;4.60;77.60
49385;DHT22;36795;45.028;38.968;2023-12-29T01:58:55;4.60;77.70
49385;DHT22;36795;45.028;38.968;2023-12-29T02:01:42;4.60;77.60
49385;DHT22;36795;45.028;38.968;2023-12-29T02:04:30;4.60;77.70
49385;DHT22;36795;45.028;38.968;2023-12-29T02:07:17;4.70;77.80
49385;DHT22;36795;45.028;38.968;2023-12-29T02:10:05;4.70;77.90
49385;DHT22;36795;45.028;38.968;2023-12-29T02:12:51;4.70;78.00
49385;DHT22;36795;45.028;38.968;2023-12-29T02:15:43;4.80;78.10
49385;DHT22;36795;45.028;38.968;2023-12-29T02:18:33;4.90;78.30
49385;DHT22;36795;45.028;38.968;2023-12-29T02:21:25;4.90;78.30
49385;DHT22;36795;45.028;38.968;2023-12-29T02:24:11;5.00;78.40
49385;DHT22;36795;45.028;38.968;2023-12-29T02:27:25;5.00;78.40
49385;DHT22;36795;45.028;38.968;2023-12-29T02:33:20;5.00;78.60
49385;DHT22;36795;45.028;38.968;2023-12-29T02:36:07;5.00;78.60
49385;DHT22;36795;45.028;38.968;2023-12-29T02:38:55;5.00;78.60
49385;DHT22;36795;45.028;38.968;2023-12-29T02:41:41;5.00;78.50
49385;DHT22;36795;45.028;38.968;2023-12-29T02:44:27;4.90;78.50
49385;DHT22;36795;45.028;38.968;2023-12-29T02:47:13;4.90;78.70
49385;DHT22;36795;45.028;38.968;2023-12-29T02:49:59;4.80;78.70
49385;DHT22;36795;45.028;38.968;2023-12-29T02:52:45;4.80;78.80
49385;DHT22;36795;45.028;38.968;2023-12-29T02:55:32;4.80;79.00
49385;DHT22;36795;45.028;38.968;2023-12-29T02:58:17;4.80;79.10
49385;DHT22;36795;45.028;38.968;2023-12-29T03:01:03;4.80;79.10
49385;DHT22;36795;45.028;38.968;2023-12-29T03:03:49;4.80;79.30
49385;DHT22;36795;45.028;38.968;2023-12-29T03:06:36;4.80;79.30
49385;DHT22;36795;45.028;38.968;2023-12-29T03:09:21;4.70;79.20
49385;DHT22;36795;45.028;38.968;2023-12-29T03:12:08;4.80;79.50
49385;DHT22;36795;45.028;38.968;2023-12-29T03:14:54;4.80;79.70
49385;DHT22;36795;45.028;38.968;2023-12-29T03:17:41;4.80;79.80
49385;DHT22;36795;45.028;38.968;2023-12-29T03:20:27;4.80;79.90
49385;DHT22;36795;45.028;38.968;2023-12-29T03:23:14;4.80;80.00
49385;DHT22;36795;45.028;38.968;2023-12-29T03:26:00;4.90;80.10
49385;DHT22;36795;45.028;38.968;2023-12-29T03:28:46;4.90;80.10
49385;DHT22;36795;45.028;38.968;2023-12-29T03:31:32;4.90;80.10
49385;DHT22;36795;45.028;38.968;2023-12-29T03:34:19;5.00;80.30
49385;DHT22;36795;45.028;38.968;2023-12-29T03:37:06;5.00;80.30
49385;DHT22;36795;45.028;38.968;2023-12-29T03:39:52;5.00;80.30
49385;DHT22;36795;45.028;38.968;2023-12-29T03:42:38;5.00;80.30
49385;DHT22;36795;45.028;38.968;2023-12-29T03:45:25;5.10;80.50
49385;DHT22;36795;45.028;38.968;2023-12-29T03:48:10;5.10;80.40
49385;DHT22;36795;45.028;38.968;2023-12-29T03:50:57;5.10;80.90
49385;DHT22;36795;45.028;38.968;2023-12-29T03:53:43;5.10;80.80
49385;DHT22;36795;45.028;38.968;2023-12-29T03:56:29;5.20;80.90
49385;DHT22;36795;45.028;38.968;2023-12-29T03:59:15;5.20;80.90
49385;DHT22;36795;45.028;38.968;2023-12-29T04:02:01;5.20;80.80
49385;DHT22;36795;45.028;38.968;2023-12-29T04:04:47;5.20;80.80
49385;DHT22;36795;45.028;38.968;2023-12-29T04:07:34;5.20;80.90
49385;DHT22;36795;45.028;38.968;2023-12-29T04:10:20;5.20;81.00
49385;DHT22;36795;45.028;38.968;2023-12-29T04:13:06;5.30;81.20
49385;DHT22;36795;45.028;38.968;2023-12-29T04:15:52;5.30;81.30
49385;DHT22;36795;45.028;38.968;2023-12-29T04:18:38;5.50;81.70
49385;DHT22;36795;45.028;38.968;2023-12-29T04:21:24;5.50;81.40
49385;DHT22;36795;45.028;38.968;2023-12-29T04:24:10;5.60;81.30
49385;DHT22;36795;45.028;38.968;2023-12-29T04:26:56;5.50;81.10
49385;DHT22;36795;45.028;38.968;2023-12-29T04:29:42;5.50;81.20
49385;DHT22;36795;45.028;38.968;2023-12-29T04:32:29;5.40;81.80
49385;DHT22;36795;45.028;38.968;2023-12-29T04:35:15;5.50;81.70
49385;DHT22;36795;45.028;38.968;2023-12-29T04:38:01;5.40;81.50
49385;DHT22;36795;45.028;38.968;2023-12-29T04:40:47;5.50;81.90
49385;DHT22;36795;45.028;38.968;2023-12-29T04:43:34;5.50;82.30
49385;DHT22;36795;45.028;38.968;2023-12-29T04:46:20;5.50;82.10
49385;DHT22;36795;45.028;38.968;2023-12-29T04:49:07;5.60;82.20
49385;DHT22;36795;45.028;38.968;2023-12-29T04:51:53;5.70;81.90
49385;DHT22;36795;45.028;38.968;2023-12-29T04:54:39;5.70;82.20
49385;DHT22;36795;45.028;38.968;2023-12-29T04:57:25;5.80;82.10
49385;DHT22;36795;45.028;38.968;2023-12-29T05:00:12;5.80;81.90
49385;DHT22;36795;45.028;38.968;2023-12-29T05:02:58;5.70;81.80
49385;DHT22;36795;45.028;38.968;2023-12-29T05:05:44;5.80;82.10
49385;DHT22;36795;45.028;38.968;2023-12-29T05:08:31;5.80;82.40
49385;DHT22;36795;45.028;38.968;2023-12-29T05:11:18;5.90;82.70
49385;DHT22;36795;45.028;38.968;2023-12-29T05:14:03;6.00;82.90
49385;DHT22;36795;45.028;38.968;2023-12-29T05:16:49;6.10;82.80
49385;DHT22;36795;45.028;38.968;2023-12-29T05:19:35;6.20;82.70
49385;DHT22;36795;45.028;38.968;2023-12-29T05:22:22;6.30;82.80
49385;DHT22;36795;45.028;38.968;2023-12-29T05:25:07;6.40;82.60
49385;DHT22;36795;45.028;38.968;2023-12-29T05:27:54;6.50;82.60
49385;DHT22;36795;45.028;38.968;2023-12-29T05:30:40;6.60;82.40
49385;DHT22;36795;45.028;38.968;2023-12-29T05:33:27;6.70;82.30
49385;DHT22;36795;45.028;38.968;2023-12-29T05:36:13;6.70;82.20
49385;DHT22;36795;45.028;38.968;2023-12-29T05:38:59;6.90;82.20
49385;DHT22;36795;45.028;38.968;2023-12-29T05:41:45;7.00;81.80
49385;DHT22;36795;45.028;38.968;2023-12-29T05:44:31;7.00;81.40
49385;DHT22;36795;45.028;38.968;2023-12-29T05:47:18;7.10;81.20
49385;DHT22;36795;45.028;38.968;2023-12-29T05:50:04;7.10;81.10
49385;DHT22;36795;45.028;38.968;2023-12-29T05:52:50;7.10;81.00
49385;DHT22;36795;45.028;38.968;2023-12-29T05:55:37;7.30;81.40
49385;DHT22;36795;45.028;38.968;2023-12-29T05:58:23;8.00;80.50
49385;DHT22;36795;45.028;38.968;2023-12-29T06:01:10;8.80;77.90
49385;DHT22;36795;45.028;38.968;2023-12-29T06:03:56;9.20;75.30
49385;DHT22;36795;45.028;38.968;2023-12-29T06:06:42;9.20;74.50
49385;DHT22;36795;45.028;38.968;2023-12-29T06:09:29;9.00;74.70
49385;DHT22;36795;45.028;38.968;2023-12-29T06:12:15;8.80;75.40
49385;DHT22;36795;45.028;38.968;2023-12-29T06:15:02;8.60;76.10
49385;DHT22;36795;45.028;38.968;2023-12-29T06:17:49;8.60;76.80
49385;DHT22;36795;45.028;38.968;2023-12-29T06:20:35;8.80;76.60
49385;DHT22;36795;45.028;38.968;2023-12-29T06:23:20;9.00;75.70
49385;DHT22;36795;45.028;38.968;2023-12-29T06:26:17;9.10;75.30
49385;DHT22;36795;45.028;38.968;2023-12-29T06:29:03;9.60;74.80
49385;DHT22;36795;45.028;38.968;2023-12-29T06:31:49;10.00;72.80
49385;DHT22;36795;45.028;38.968;2023-12-29T06:34:35;9.90;72.00
49385;DHT22;36795;45.028;38.968;2023-12-29T06:37:21;10.40;71.80
49385;DHT22;36795;45.028;38.968;2023-12-29T06:40:09;11.20;69.00
49385;DHT22;36795;45.028;38.968;2023-12-29T06:42:59;11.50;66.80
49385;DHT22;36795;45.028;38.968;2023-12-29T06:45:47;11.80;65.40
49385;DHT22;36795;45.028;38.968;2023-12-29T06:48:37;11.50;65.20
49385;DHT22;36795;45.028;38.968;2023-12-29T06:51:25;11.70;65.70
49385;DHT22;36795;45.028;38.968;2023-12-29T06:54:12;12.30;64.20
49385;DHT22;36795;45.028;38.968;2023-12-29T06:56:59;12.50;63.10
49385;DHT22;36795;45.028;38.968;2023-12-29T06:59:45;12.60;62.60
49385;DHT22;36795;45.028;38.968;2023-12-29T07:02:31;12.60;61.90
49385;DHT22;36795;45.028;38.968;2023-12-29T07:05:17;12.50;62.30
49385;DHT22;36795;45.028;38.968;2023-12-29T07:08:07;12.60;62.40
49385;DHT22;36795;45.028;38.968;2023-12-29T07:10:54;12.70;61.40
49385;DHT22;36795;45.028;38.968;2023-12-29T07:13:42;12.50;61.90
49385;DHT22;36795;45.028;38.968;2023-12-29T07:16:32;12.10;62.70
49385;DHT22;36795;45.028;38.968;2023-12-29T07:19:21;11.90;63.60
49385;DHT22;36795;45.028;38.968;2023-12-29T07:22:07;12.00;63.90
49385;DHT22;36795;45.028;38.968;2023-12-29T07:24:53;12.40;62.90
49385;DHT22;36795;45.028;38.968;2023-12-29T07:27:40;12.80;61.80
49385;DHT22;36795;45.028;38.968;2023-12-29T07:30:26;13.50;60.40
49385;DHT22;36795;45.028;38.968;2023-12-29T07:33:12;13.90;57.90
49385;DHT22;36795;45.028;38.968;2023-12-29T07:35:59;14.50;56.30
49385;DHT22;36795;45.028;38.968;2023-12-29T07:38:45;14.60;55.80
49385;DHT22;36795;45.028;38.968;2023-12-29T07:41:31;14.50;55.40
49385;DHT22;36795;45.028;38.968;2023-12-29T07:44:18;14.30;56.30
49385;DHT22;36795;45.028;38.968;2023-12-29T07:47:04;14.70;55.70
49385;DHT22;36795;45.028;38.968;2023-12-29T07:49:53;15.60;53.60
49385;DHT22;36795;45.028;38.968;2023-12-29T07:52:39;15.70;52.40
49385;DHT22;36795;45.028;38.968;2023-12-29T07:55:25;15.60;52.50
49385;DHT22;36795;45.028;38.968;2023-12-29T07:58:16;15.20;53.90
49385;DHT22;36795;45.028;38.968;2023-12-29T08:01:02;15.50;53.30
49385;DHT22;36795;45.028;38.968;2023-12-29T08:03:49;16.10;52.00
49385;DHT22;36795;45.028;38.968;2023-12-29T08:06:37;16.10;51.70
49385;DHT22;36795;45.028;38.968;2023-12-29T08:09:25;16.30;51.40
49385;DHT22;36795;45.028;38.968;2023-12-29T08:12:11;16.30;51.00
49385;DHT22;36795;45.028;38.968;2023-12-29T08:14:57;16.60;50.50
49385;DHT22;36795;45.028;38.968;2023-12-29T08:17:43;16.90;49.90
49385;DHT22;36795;45.028;38.968;2023-12-29T08:20:30;17.10;49.40
49385;DHT22;36795;45.028;38.968;2023-12-29T08:23:16;17.80;48.40
49385;DHT22;36795;45.028;38.968;2023-12-29T08:26:03;18.20;47.10
49385;DHT22;36795;45.028;38.968;2023-12-29T08:28:49;18.10;46.90
49385;DHT22;36795;45.028;38.968;2023-12-29T08:31:35;18.30;46.70
49385;DHT22;36795;45.028;38.968;2023-12-29T08:34:21;19.20;45.60
49385;DHT22;36795;45.028;38.968;2023-12-29T08:37:08;19.40;43.90
49385;DHT22;36795;45.028;38.968;2023-12-29T08:39:53;19.30;44.60
49385;DHT22;36795;45.028;38.968;2023-12-29T08:42:40;19.40;45.10
49385;DHT22;36795;45.028;38.968;2023-12-29T08:45:36;20.00;43.70
49385;DHT22;36795;45.028;38.968;2023-12-29T08:48:24;21.30;42.00
49385;DHT22;36795;45.028;38.968;2023-12-29T08:51:11;22.20;39.00
49385;DHT22;36795;45.028;38.968;2023-12-29T08:53:57;21.60;39.70
49385;DHT22;36795;45.028;38.968;2023-12-29T08:56:43;21.50;39.30
49385;DHT22;36795;45.028;38.968;2023-12-29T08:59:29;22.00;38.90
49385;DHT22;36795;45.028;38.968;2023-12-29T09:02:15;22.60;37.60
49385;DHT22;36795;45.028;38.968;2023-12-29T09:05:01;23.20;36.80
49385;DHT22;36795;45.028;38.968;2023-12-29T09:07:47;23.80;35.90
49385;DHT22;36795;45.028;38.968;2023-12-29T09:10:34;23.20;35.80
49385;DHT22;36795;45.028;38.968;2023-12-29T09:13:19;21.80;37.70
49385;DHT22;36795;45.028;38.968;2023-12-29T09:16:08;21.00;39.30
49385;DHT22;36795;45.028;38.968;2023-12-29T09:18:54;20.70;39.70
49385;DHT22;36795;45.028;38.968;2023-12-29T09:21:40;20.20;40.50
49385;DHT22;36795;45.028;38.968;2023-12-29T09:24:26;19.60;41.80
49385;DHT22;36795;45.028;38.968;2023-12-29T09:27:12;19.90;41.40
49385;DHT22;36795;45.028;38.968;2023-12-29T09:29:59;20.10;41.10
49385;DHT22;36795;45.028;38.968;2023-12-29T09:32:45;19.60;41.80
49385;DHT22;36795;45.028;38.968;2023-12-29T09:35:32;19.00;43.00
49385;DHT22;36795;45.028;38.968;2023-12-29T09:38:19;18.50;43.90
49385;DHT22;36795;45.028;38.968;2023-12-29T09:41:08;18.40;44.10
49385;DHT22;36795;45.028;38.968;2023-12-29T09:43:55;18.70;43.80
49385;DHT22;36795;45.028;38.968;2023-12-29T09:46:42;18.90;43.20
49385;DHT22;36795;45.028;38.968;2023-12-29T09:49:37;19.80;42.20
49385;DHT22;36795;45.028;38.968;2023-12-29T09:52:25;20.70;40.40
49385;DHT22;36795;45.028;38.968;2023-12-29T09:55:11;20.60;40.40
49385;DHT22;36795;45.028;38.968;2023-12-29T09:57:59;20.50;40.70
49385;DHT22;36795;45.028;38.968;2023-12-29T10:00:48;20.30;41.40
49385;DHT22;36795;45.028;38.968;2023-12-29T10:03:35;20.90;40.50
49385;DHT22;36795;45.028;38.968;2023-12-29T10:06:25;21.80;39.40
49385;DHT22;36795;45.028;38.968;2023-12-29T10:09:12;22.00;38.40
49385;DHT22;36795;45.028;38.968;2023-12-29T10:12:02;22.00;37.90
49385;DHT22;36795;45.028;38.968;2023-12-29T10:15:05;21.80;37.60
49385;DHT22;36795;45.028;38.968;2023-12-29T10:18:14;21.50;38.10
49385;DHT22;36795;45.028;38.968;2023-12-29T10:21:08;20.60;39.50
49385;DHT22;36795;45.028;38.968;2023-12-29T10:24:10;21.10;39.40
49385;DHT22;36795;45.028;38.968;2023-12-29T10:26:59;21.20;38.40
49385;DHT22;36795;45.028;38.968;2023-12-29T10:29:46;20.70;38.90
49385;DHT22;36795;45.028;38.968;2023-12-29T10:32:33;20.40;39.20
49385;DHT22;36795;45.028;38.968;2023-12-29T10:35:25;20.50;39.50
49385;DHT22;36795;45.028;38.968;2023-12-29T10:38:15;20.50;39.60
49385;DHT22;36795;45.028;38.968;2023-12-29T10:44:06;20.20;40.60
49385;DHT22;36795;45.028;38.968;2023-12-29T10:46:52;20.10;39.40
49385;DHT22;36795;45.028;38.968;2023-12-29T10:49:46;19.70;40.20
49385;DHT22;36795;45.028;38.968;2023-12-29T10:52:34;19.30;41.20
49385;DHT22;36795;45.028;38.968;2023-12-29T10:55:24;18.90;41.60
49385;DHT22;36795;45.028;38.968;2023-12-29T10:58:10;18.60;42.20
49385;DHT22;36795;45.028;38.968;2023-12-29T11:00:56;18.00;43.00
49385;DHT22;36795;45.028;38.968;2023-12-29T11:03:42;17.40;44.10
49385;DHT22;36795;45.028;38.968;2023-12-29T11:06:29;16.80;45.50
49385;DHT22;36795;45.028;38.968;2023-12-29T11:09:30;16.30;46.20
49385;DHT22;36795;45.028;38.968;2023-12-29T11:12:17;16.00;47.10
49385;DHT22;36795;45.028;38.968;2023-12-29T11:15:06;15.70;47.70
49385;DHT22;36795;45.028;38.968;2023-12-29T11:17:55;15.50;48.20
49385;DHT22;36795;45.028;38.968;2023-12-29T11:20:42;15.30;48.70
49385;DHT22;36795;45.028;38.968;2023-12-29T11:23:29;15.10;49.20
49385;DHT22;36795;45.028;38.968;2023-12-29T11:26:15;15.00;49.60
49385;DHT22;36795;45.028;38.968;2023-12-29T11:29:02;14.80;49.40
49385;DHT22;36795;45.028;38.968;2023-12-29T11:31:51;14.70;49.70
49385;DHT22;36795;45.028;38.968;2023-12-29T11:34:44;14.60;50.00
49385;DHT22;36795;45.028;38.968;2023-12-29T11:37:59;14.50;50.00
49385;DHT22;36795;45.028;38.968;2023-12-29T11:41:05;14.60;50.30
49385;DHT22;36795;45.028;38.968;2023-12-29T11:44:00;14.60;50.30
49385;DHT22;36795;45.028;38.968;2023-12-29T11:46:46;14.60;49.90
49385;DHT22;36795;45.028;38.968;2023-12-29T11:49:58;14.50;49.80
49385;DHT22;36795;45.028;38.968;2023-12-29T11:52:45;14.40;50.10
49385;DHT22;36795;45.028;38.968;2023-12-29T11:55:35;14.30;50.50
49385;DHT22;36795;45.028;38.968;2023-12-29T11:58:26;14.20;50.90
49385;DHT22;36795;45.028;38.968;2023-12-29T12:01:20;14.10;51.00
49385;DHT22;36795;45.028;38.968;2023-12-29T12:13:46;13.90;51.60
49385;DHT22;36795;45.028;38.968;2023-12-29T12:16:49;13.90;51.70
49385;DHT22;36795;45.028;38.968;2023-12-29T12:19:39;13.70;51.70
49385;DHT22;36795;45.028;38.968;2023-12-29T12:22:29;13.70;51.90
49385;DHT22;36795;45.028;38.968;2023-12-29T12:25:15;13.70;51.80
49385;DHT22;36795;45.028;38.968;2023-12-29T12:28:05;13.60;51.90
49385;DHT22;36795;45.028;38.968;2023-12-29T12:30:52;13.60;51.70
49385;DHT22;36795;45.028;38.968;2023-12-29T12:33:39;13.50;52.20
49385;DHT22;36795;45.028;38.968;2023-12-29T12:36:25;13.50;52.40
49385;DHT22;36795;45.028;38.968;2023-12-29T12:39:13;13.40;52.40
49385;DHT22;36795;45.028;38.968;2023-12-29T12:41:59;13.40;52.50
49385;DHT22;36795;45.028;38.968;2023-12-29T12:45:06;13.30;52.70
49385;DHT22;36795;45.028;38.968;2023-12-29T12:48:13;13.20;53.00
49385;DHT22;36795;45.028;38.968;2023-12-29T12:51:00;13.20;53.30
49385;DHT22;36795;45.028;38.968;2023-12-29T12:53:46;13.10;53.20
49385;DHT22;36795;45.028;38.968;2023-12-29T12:56:35;13.00;53.00
49385;DHT22;36795;45.028;38.968;2023-12-29T12:59:21;13.00;52.90
49385;DHT22;36795;45.028;38.968;2023-12-29T13:02:08;12.90;52.80
49385;DHT22;36795;45.028;38.968;2023-12-29T13:04:55;12.80;52.90
49385;DHT22;36795;45.028;38.968;2023-12-29T13:07:42;12.80;52.90
49385;DHT22;36795;45.028;38.968;2023-12-29T13:10:28;12.70;52.80
49385;DHT22;36795;45.028;38.968;2023-12-29T13:13:14;12.60;52.80
49385;DHT22;36795;45.028;38.968;2023-12-29T13:16:00;12.60;52.80
49385;DHT22;36795;45.028;38.968;2023-12-29T13:18:47;12.60;52.60
49385;DHT22;36795;45.028;38.968;2023-12-29T13:21:33;12.50;52.90
49385;DHT22;36795;45.028;38.968;2023-12-29T13:24:20;12.40;53.00
49385;DHT22;36795;45.028;38.968;2023-12-29T13:27:07;12.30;53.10
49385;DHT22;36795;45.028;38.968;2023-12-29T13:29:54;12.30;53.20
49385;DHT22;36795;45.028;38.968;2023-12-29T13:32:40;12.20;53.40
49385;DHT22;36795;45.028;38.968;2023-12-29T13:35:35;12.20;53.50
49385;DHT22;36795;45.028;38.968;2023-12-29T13:38:27;12.10;53.60
49385;DHT22;36795;45.028;38.968;2023-12-29T13:41:15;12.10;53.80
49385;DHT22;36795;45.028;38.968;2023-12-29T13:44:02;12.00;54.00
49385;DHT22;36795;45.028;38.968;2023-12-29T13:46:50;11.90;54.20
49385;DHT22;36795;45.028;38.968;2023-12-29T13:49:37;11.90;54.40
49385;DHT22;36795;45.028;38.968;2023-12-29T13:52:24;11.90;54.50
49385;DHT22;36795;45.028;38.968;2023-12-29T13:55:10;11.80;54.70
49385;DHT22;36795;45.028;38.968;2023-12-29T13:57:56;11.80;55.00
49385;DHT22;36795;45.028;38.968;2023-12-29T14:00:43;11.80;55.20
49385;DHT22;36795;45.028;38.968;2023-12-29T14:03:42;11.70;55.40
49385;DHT22;36795;45.028;38.968;2023-12-29T14:06:36;11.70;55.60
49385;DHT22;36795;45.028;38.968;2023-12-29T14:09:24;11.60;55.80
49385;DHT22;36795;45.028;38.968;2023-12-29T14:12:10;11.50;56.10
49385;DHT22;36795;45.028;38.968;2023-12-29T14:15:03;11.50;56.30
49385;DHT22;36795;45.028;38.968;2023-12-29T14:17:50;11.50;56.50
49385;DHT22;36795;45.028;38.968;2023-12-29T14:20:37;11.50;56.70
49385;DHT22;36795;45.028;38.968;2023-12-29T14:23:23;11.40;56.80
49385;DHT22;36795;45.028;38.968;2023-12-29T14:26:10;11.40;57.00
49385;DHT22;36795;45.028;38.968;2023-12-29T14:29:12;11.40;57.20
49385;DHT22;36795;45.028;38.968;2023-12-29T14:31:58;11.30;57.30
49385;DHT22;36795;45.028;38.968;2023-12-29T14:34:47;11.20;57.60
49385;DHT22;36795;45.028;38.968;2023-12-29T14:37:38;11.20;57.80
49385;DHT22;36795;45.028;38.968;2023-12-29T14:40:24;11.20;57.90
49385;DHT22;36795;45.028;38.968;2023-12-29T14:43:11;11.10;58.00
49385;DHT22;36795;45.028;38.968;2023-12-29T14:45:56;11.10;58.10
49385;DHT22;36795;45.028;38.968;2023-12-29T14:48:43;11.10;58.20
49385;DHT22;36795;45.028;38.968;2023-12-29T14:51:29;11.10;58.20
49385;DHT22;36795;45.028;38.968;2023-12-29T14:54:16;11.10;58.20
49385;DHT22;36795;45.028;38.968;2023-12-29T14:57:01;11.10;58.20
49385;DHT22;36795;45.028;38.968;2023-12-29T14:59:48;11.10;58.30
49385;DHT22;36795;45.028;38.968;2023-12-29T15:02:33;11.10;58.30
49385;DHT22;36795;45.028;38.968;2023-12-29T15:05:20;11.10;58.20
49385;DHT22;36795;45.028;38.968;2023-12-29T15:08:05;11.10;58.20
49385;DHT22;36795;45.028;38.968;2023-12-29T15:10:51;11.10;58.20
49385;DHT22;36795;45.028;38.968;2023-12-29T15:13:38;11.10;58.20
49385;DHT22;36795;45.028;38.968;2023-12-29T15:16:24;11.10;58.30
49385;DHT22;36795;45.028;38.968;2023-12-29T15:19:10;11.10;58.40
49385;DHT22;36795;45.028;38.968;2023-12-29T15:21:58;11.00;58.40
49385;DHT22;36795;45.028;38.968;2023-12-29T15:24:43;11.00;58.40
49385;DHT22;36795;45.028;38.968;2023-12-29T15:27:29;11.00;58.30
49385;DHT22;36795;45.028;38.968;2023-12-29T15:30:15;11.00;58.30
49385;DHT22;36795;45.028;38.968;2023-12-29T15:33:01;11.10;58.20
49385;DHT22;36795;45.028;38.968;2023-12-29T15:35:48;11.00;58.10
49385;DHT22;36795;45.028;38.968;2023-12-29T15:38:35;11.00;58.10
49385;DHT22;36795;45.028;38.968;2023-12-29T15:41:21;11.00;58.10
49385;DHT22;36795;45.028;38.968;2023-12-29T15:44:08;10.90;58.00
49385;DHT22;36795;45.028;38.968;2023-12-29T15:46:54;11.00;57.90
49385;DHT22;36795;45.028;38.968;2023-12-29T15:49:44;10.90;57.80
49385;DHT22;36795;45.028;38.968;2023-12-29T15:52:30;10.90;57.70
49385;DHT22;36795;45.028;38.968;2023-12-29T15:55:16;11.00;57.60
49385;DHT22;36795;45.028;38.968;2023-12-29T15:58:02;11.00;57.60
49385;DHT22;36795;45.028;38.968;2023-12-29T16:00:50;11.00;57.50
49385;DHT22;36795;45.028;38.968;2023-12-29T16:03:36;11.00;57.40
49385;DHT22;36795;45.028;38.968;2023-12-29T16:06:26;11.00;57.40
49385;DHT22;36795;45.028;38.968;2023-12-29T16:09:14;10.90;57.40
49385;DHT22;36795;45.028;38.968;2023-12-29T16:12:00;10.90;57.50
49385;DHT22;36795;45.028;38.968;2023-12-29T16:14:46;11.00;57.40
49385;DHT22;36795;45.028;38.968;2023-12-29T16:17:32;11.00;57.30
49385;DHT22;36795;45.028;38.968;2023-12-29T16:20:18;11.00;57.40
49385;DHT22;36795;45.028;38.968;2023-12-29T16:23:05;10.90;57.50
49385;DHT22;36795;45.028;38.968;2023-12-29T16:25:52;10.90;57.60
49385;DHT22;36795;45.028;38.968;2023-12-29T16:28:38;10.90;57.80
49385;DHT22;36795;45.028;38.968;2023-12-29T16:31:24;10.80;57.90
49385;DHT22;36795;45.028;38.968;2023-12-29T16:34:10;10.80;58.20
49385;DHT22;36795;45.028;38.968;2023-12-29T16:36:58;10.70;58.40
49385;DHT22;36795;45.028;38.968;2023-12-29T16:39:45;10.70;58.70
49385;DHT22;36795;45.028;38.968;2023-12-29T16:42:31;10.70;59.10
49385;DHT22;36795;45.028;38.968;2023-12-29T16:45:17;10.60;59.30
49385;DHT22;36795;45.028;38.968;2023-12-29T16:48:03;10.60;59.60
49385;DHT22;36795;45.028;38.968;2023-12-29T16:50:50;10.60;59.80
49385;DHT22;36795;45.028;38.968;2023-12-29T16:53:37;10.60;60.00
49385;DHT22;36795;45.028;38.968;2023-12-29T16:56:26;10.60;60.10
49385;DHT22;36795;45.028;38.968;2023-12-29T16:59:12;10.60;60.00
49385;DHT22;36795;45.028;38.968;2023-12-29T17:01:58;10.60;60.00
49385;DHT22;36795;45.028;38.968;2023-12-29T17:04:44;10.60;60.20
49385;DHT22;36795;45.028;38.968;2023-12-29T17:07:30;10.70;60.30
49385;DHT22;36795;45.028;38.968;2023-12-29T17:10:17;10.70;60.40
49385;DHT22;36795;45.028;38.968;2023-12-29T17:13:04;10.70;60.40
49385;DHT22;36795;45.028;38.968;2023-12-29T17:15:51;10.70;60.50
49385;DHT22;36795;45.028;38.968;2023-12-29T17:18:37;10.70;60.60
49385;DHT22;36795;45.028;38.968;2023-12-29T17:21:23;10.70;60.60
49385;DHT22;36795;45.028;38.968;2023-12-29T17:24:09;10.70;60.60
49385;DHT22;36795;45.028;38.968;2023-12-29T17:26:55;10.70;60.60
49385;DHT22;36795;45.028;38.968;2023-12-29T17:29:41;10.80;60.50
49385;DHT22;36795;45.028;38.968;2023-12-29T17:32:28;10.90;60.50
49385;DHT22;36795;45.028;38.968;2023-12-29T17:35:14;10.90;60.40
49385;DHT22;36795;45.028;38.968;2023-12-29T17:38:00;10.90;60.30
49385;DHT22;36795;45.028;38.968;2023-12-29T17:40:46;10.90;60.30
49385;DHT22;36795;45.028;38.968;2023-12-29T17:43:32;10.90;60.90
49385;DHT22;36795;45.028;38.968;2023-12-29T17:46:18;10.90;60.40